createdAt,value
2017-11-17T00:01:59.883Z,6.85
2017-11-17T00:04:27.513Z,7.00
2017-11-17T00:06:54.174Z,6.90
2017-11-17T00:09:20.838Z,7.04
2017-11-17T00:11:48.332Z,7.13
2017-11-17T00:14:15.036Z,6.74
2017-11-17T00:16:42.525Z,6.75
2017-11-17T00:19:09.221Z,6.82
2017-11-17T00:21:35.892Z,6.90
2017-11-17T00:24:03.441Z,6.82
2017-11-17T00:26:31.207Z,6.94
2017-11-17T00:28:58.607Z,6.87
2017-11-17T00:31:25.264Z,6.90
2017-11-17T00:33:51.969Z,7.04
2017-11-17T00:36:19.400Z,7.16
2017-11-17T00:38:46.088Z,7.21
2017-11-17T00:41:12.799Z,7.17
2017-11-17T00:43:40.242Z,7.20
2017-11-17T00:46:06.899Z,7.16
2017-11-17T00:48:33.612Z,7.36
2017-11-17T00:51:00.277Z,7.38
2017-11-17T00:53:26.940Z,7.53
2017-11-17T00:55:54.395Z,7.56
2017-11-17T00:58:21.840Z,7.62
2017-11-17T01:00:49.289Z,7.65
2017-11-17T01:03:15.989Z,7.57
2017-11-17T01:05:42.673Z,7.50
2017-11-17T01:08:09.366Z,7.45
2017-11-17T01:10:36.080Z,7.47
2017-11-17T01:13:02.762Z,7.26
2017-11-17T01:15:29.450Z,7.39
2017-11-17T01:17:56.145Z,7.34
2017-11-17T01:20:22.786Z,7.12
2017-11-17T01:22:49.445Z,7.18
2017-11-17T01:25:16.145Z,7.30
2017-11-17T01:27:43.557Z,7.18
2017-11-17T01:30:10.232Z,7.24
2017-11-17T01:32:36.952Z,7.36
2017-11-17T01:35:03.669Z,7.46
2017-11-17T01:37:30.369Z,7.51
2017-11-17T01:39:57.835Z,7.54
2017-11-17T01:42:24.539Z,7.27
2017-11-17T01:44:51.338Z,7.22
2017-11-17T01:47:18.785Z,7.05
2017-11-17T01:49:45.499Z,7.24
2017-11-17T01:52:12.920Z,7.29
2017-11-17T01:54:39.673Z,7.16
2017-11-17T01:57:06.401Z,7.29
2017-11-17T01:59:33.128Z,7.35
2017-11-17T02:02:00.724Z,7.37
2017-11-17T02:04:27.457Z,7.48
2017-11-17T02:06:54.450Z,7.49
2017-11-17T02:09:21.198Z,7.49
2017-11-17T02:11:47.877Z,7.48
2017-11-17T02:14:15.316Z,7.48
2017-11-17T02:16:42.056Z,7.52
2017-11-17T02:19:08.808Z,7.62
2017-11-17T02:21:35.530Z,7.64
2017-11-17T02:24:02.285Z,7.69
2017-11-17T02:26:29.033Z,7.70
2017-11-17T02:28:55.754Z,7.73
2017-11-17T02:31:22.541Z,7.80
2017-11-17T02:33:50.030Z,7.81
2017-11-17T02:36:16.745Z,7.75
2017-11-17T02:38:43.520Z,7.78
2017-11-17T02:41:10.285Z,7.74
2017-11-17T02:43:37.056Z,7.72
2017-11-17T02:46:03.813Z,7.65
2017-11-17T02:48:30.553Z,7.69
2017-11-17T02:50:57.293Z,7.58
2017-11-17T02:53:24.093Z,7.62
2017-11-17T02:55:50.830Z,7.65
2017-11-17T02:58:17.610Z,7.67
2017-11-17T03:00:44.399Z,7.66
2017-11-17T03:03:11.889Z,7.58
2017-11-17T03:05:38.577Z,7.78
2017-11-17T03:08:05.316Z,7.55
2017-11-17T03:10:31.988Z,7.25
2017-11-17T03:12:59.428Z,7.13
2017-11-17T03:15:26.154Z,7.18
2017-11-17T03:17:52.830Z,7.08
2017-11-17T03:20:20.291Z,7.23
2017-11-17T03:22:47.821Z,7.21
2017-11-17T03:25:14.542Z,7.22
2017-11-17T03:27:41.259Z,7.34
2017-11-17T03:30:09.032Z,7.37
2017-11-17T03:32:35.718Z,7.18
2017-11-17T03:35:02.416Z,7.04
2017-11-17T03:37:29.170Z,6.92
2017-11-17T03:39:55.852Z,6.92
2017-11-17T03:42:22.557Z,6.82
2017-11-17T03:44:49.253Z,6.89
2017-11-17T03:47:15.949Z,6.65
2017-11-17T03:49:42.658Z,6.79
2017-11-17T03:52:10.152Z,6.87
2017-11-17T03:54:36.955Z,6.78
2017-11-17T03:57:03.630Z,6.76
2017-11-17T03:59:30.354Z,6.79
2017-11-17T04:01:57.813Z,6.86
2017-11-17T04:04:25.287Z,6.74
2017-11-17T04:06:52.041Z,6.60
2017-11-17T04:09:18.747Z,6.64
2017-11-17T04:11:45.456Z,6.63
2017-11-17T04:14:12.295Z,6.80
2017-11-17T04:16:39.961Z,6.85
2017-11-17T04:19:06.648Z,6.90
2017-11-17T04:21:33.362Z,6.70
2017-11-17T04:24:00.021Z,6.69
2017-11-17T04:26:26.816Z,6.90
2017-11-17T04:28:53.546Z,6.89
2017-11-17T04:31:20.975Z,6.87
2017-11-17T04:33:47.720Z,6.99
2017-11-17T04:36:14.482Z,7.16
2017-11-17T04:38:41.230Z,7.14
2017-11-17T04:41:08.656Z,7.20
2017-11-17T04:43:35.389Z,7.12
2017-11-17T04:46:02.108Z,7.10
2017-11-17T04:48:28.815Z,6.86
2017-11-17T04:50:56.301Z,6.71
2017-11-17T04:53:23.728Z,6.59
2017-11-17T04:55:50.449Z,6.50
2017-11-17T04:58:17.244Z,6.56
2017-11-17T05:00:44.676Z,6.74
2017-11-17T05:03:11.351Z,6.77
2017-11-17T05:05:38.058Z,6.86
2017-11-17T05:08:04.751Z,7.07
2017-11-17T05:10:31.431Z,7.00
2017-11-17T05:12:58.162Z,6.97
2017-11-17T05:15:24.856Z,7.07
2017-11-17T05:17:52.247Z,7.16
2017-11-17T05:20:18.924Z,7.17
2017-11-17T05:22:45.628Z,7.12
2017-11-17T05:25:12.292Z,7.16
2017-11-17T05:27:38.983Z,7.02
2017-11-17T05:30:05.630Z,7.05
2017-11-17T05:32:33.019Z,7.26
2017-11-17T05:34:59.768Z,7.25
2017-11-17T05:37:26.468Z,7.26
2017-11-17T05:39:53.131Z,7.27
2017-11-17T05:42:20.608Z,7.34
2017-11-17T05:44:47.283Z,7.35
2017-11-17T05:47:13.958Z,7.49
2017-11-17T05:49:40.708Z,7.58
2017-11-17T05:52:08.116Z,7.36
2017-11-17T05:54:34.800Z,7.51
2017-11-17T05:57:01.480Z,7.31
2017-11-17T05:59:28.177Z,7.22
2017-11-17T06:01:54.878Z,7.17
2017-11-17T06:04:21.584Z,7.12
2017-11-17T06:06:48.985Z,7.19
2017-11-17T06:09:15.658Z,7.08
2017-11-17T06:11:42.349Z,7.03
2017-11-17T06:14:09.006Z,7.10
2017-11-17T06:16:35.668Z,7.20
2017-11-17T06:19:02.382Z,7.34
2017-11-17T06:21:29.046Z,7.26
2017-11-17T06:23:55.756Z,7.48
2017-11-17T06:26:22.508Z,7.53
2017-11-17T06:28:49.243Z,7.58
2017-11-17T06:31:16.679Z,7.64
2017-11-17T06:33:43.377Z,7.77
2017-11-17T06:36:10.048Z,7.62
2017-11-17T06:38:36.727Z,7.40
2017-11-17T06:41:04.189Z,7.39
2017-11-17T06:43:31.590Z,7.49
2017-11-17T06:45:58.312Z,7.68
2017-11-17T06:48:25.020Z,7.67
2017-11-17T06:50:51.685Z,7.37
2017-11-17T06:53:19.109Z,7.44
2017-11-17T06:55:45.810Z,7.53
2017-11-17T06:58:13.337Z,7.68
2017-11-17T07:00:40.776Z,7.40
2017-11-17T07:03:07.452Z,7.28
2017-11-17T07:05:34.858Z,7.32
2017-11-17T07:08:01.592Z,7.32
2017-11-17T07:10:28.331Z,7.32
2017-11-17T07:12:55.017Z,7.50
2017-11-17T07:15:21.692Z,7.56
2017-11-17T07:17:48.411Z,7.54
2017-11-17T07:20:15.837Z,7.48
2017-11-17T07:22:42.536Z,7.53
2017-11-17T07:25:09.982Z,7.69
2017-11-17T07:27:37.431Z,7.48
2017-11-17T07:30:04.088Z,7.70
2017-11-17T07:32:31.540Z,7.82
2017-11-17T07:34:58.248Z,7.67
2017-11-17T07:37:24.943Z,7.26
2017-11-17T07:39:52.437Z,7.52
2017-11-17T07:42:19.135Z,7.72
2017-11-17T07:44:46.551Z,7.77
2017-11-17T07:47:13.275Z,7.59
2017-11-17T07:49:39.973Z,7.58
2017-11-17T07:52:06.649Z,7.63
2017-11-17T07:54:33.395Z,7.68
2017-11-17T07:57:00.048Z,7.54
2017-11-17T07:59:26.739Z,7.46
2017-11-17T08:01:53.457Z,7.62
2017-11-17T08:04:20.128Z,7.66
2017-11-17T08:06:46.861Z,7.59
2017-11-17T08:09:13.586Z,7.26
2017-11-17T08:11:40.265Z,7.36
2017-11-17T08:14:06.926Z,7.21
2017-11-17T08:16:34.377Z,7.29
2017-11-17T08:19:01.783Z,7.15
2017-11-17T08:21:28.564Z,7.08
2017-11-17T08:23:55.976Z,7.21
2017-11-17T08:26:22.769Z,7.40
2017-11-17T08:28:49.428Z,7.24
2017-11-17T08:31:16.950Z,7.31
2017-11-17T08:33:43.610Z,7.33
2017-11-17T08:36:10.297Z,7.24
2017-11-17T08:38:37.053Z,7.24
2017-11-17T08:41:03.743Z,7.40
2017-11-17T08:43:30.453Z,7.40
2017-11-17T08:45:57.184Z,7.54
2017-11-17T08:48:23.887Z,7.30
2017-11-17T08:50:50.610Z,7.22
2017-11-17T08:53:17.389Z,7.28
2017-11-17T08:55:45.816Z,7.37
2017-11-17T08:58:12.509Z,7.46
2017-11-17T09:00:39.413Z,7.52
2017-11-17T09:03:06.128Z,7.69
2017-11-17T09:05:32.843Z,7.81
2017-11-17T09:07:59.595Z,7.65
2017-11-17T09:10:26.296Z,7.67
2017-11-17T09:12:52.965Z,7.68
2017-11-17T09:15:19.650Z,7.73
2017-11-17T09:17:46.321Z,7.75
2017-11-17T09:20:13.073Z,7.76
2017-11-17T09:22:39.807Z,7.69
2017-11-17T09:25:06.504Z,7.73
2017-11-17T09:27:33.933Z,7.68
2017-11-17T09:30:00.661Z,7.88
2017-11-17T09:32:27.332Z,7.85
2017-11-17T09:34:54.812Z,7.96
2017-11-17T09:37:22.271Z,7.83
2017-11-17T09:39:50.006Z,7.76
2017-11-17T09:42:16.930Z,7.80
2017-11-17T09:44:43.779Z,7.80
2017-11-17T09:47:10.741Z,7.41
2017-11-17T09:49:37.513Z,7.46
2017-11-17T09:52:04.248Z,7.55
2017-11-17T09:54:31.069Z,7.74
2017-11-17T09:56:57.785Z,7.38
2017-11-17T09:59:24.534Z,7.37
2017-11-17T10:01:51.224Z,7.29
2017-11-17T10:04:18.482Z,7.38
2017-11-17T10:06:45.205Z,7.36
2017-11-17T10:09:11.881Z,7.41
2017-11-17T10:11:38.566Z,7.27
2017-11-17T10:14:05.310Z,7.31
2017-11-17T10:16:32.026Z,7.49
2017-11-17T10:18:59.478Z,7.54
2017-11-17T10:21:26.205Z,7.56
2017-11-17T10:23:52.931Z,7.42
2017-11-17T10:26:19.653Z,7.50
2017-11-17T10:28:46.369Z,7.53
2017-11-17T10:31:13.801Z,7.55
2017-11-17T10:33:40.569Z,7.69
2017-11-17T10:36:08.256Z,7.77
2017-11-17T10:38:34.941Z,7.75
2017-11-17T10:41:01.722Z,7.65
2017-11-17T10:43:29.197Z,7.98
2017-11-17T10:45:55.889Z,7.73
2017-11-17T10:48:22.563Z,7.89
2017-11-17T10:50:50.062Z,7.99
2017-11-17T10:53:16.771Z,8.05
2017-11-17T10:55:44.214Z,8.12
2017-11-17T10:58:10.925Z,8.15
2017-11-17T11:00:37.628Z,8.10
2017-11-17T11:03:04.381Z,7.94
2017-11-17T11:05:31.136Z,7.84
2017-11-17T11:07:57.896Z,7.51
2017-11-17T11:10:24.662Z,7.59
2017-11-17T11:12:51.481Z,7.40
2017-11-17T11:15:18.158Z,7.26
2017-11-17T11:17:44.868Z,7.32
2017-11-17T11:20:11.670Z,7.29
2017-11-17T11:22:39.121Z,7.23
2017-11-17T11:25:05.848Z,6.99
2017-11-17T11:27:32.602Z,6.89
2017-11-17T11:29:59.320Z,6.94
2017-11-17T11:32:26.055Z,7.01
2017-11-17T11:34:52.788Z,6.92
2017-11-17T11:37:19.520Z,6.87
2017-11-17T11:39:46.226Z,6.92
2017-11-17T11:42:12.966Z,6.82
2017-11-17T11:44:39.676Z,6.89
2017-11-17T11:47:06.416Z,6.82
2017-11-17T11:49:33.163Z,6.82
2017-11-17T11:51:59.823Z,6.80
2017-11-17T11:54:26.484Z,6.83
2017-11-17T11:56:53.174Z,6.84
2017-11-17T11:59:19.908Z,6.96
2017-11-17T12:01:46.595Z,6.92
2017-11-17T12:04:13.355Z,6.97
2017-11-17T12:06:40.095Z,6.98
2017-11-17T12:09:06.767Z,6.79
2017-11-17T12:11:34.842Z,6.91
2017-11-17T12:14:02.283Z,6.77
2017-11-17T12:16:28.960Z,6.84
2017-11-17T12:18:56.426Z,6.82
2017-11-17T12:21:23.858Z,6.63
2017-11-17T12:23:50.504Z,6.61
2017-11-17T12:26:17.966Z,6.47
2017-11-17T12:28:45.369Z,6.48
2017-11-17T12:31:13.012Z,6.55
2017-11-17T12:33:40.445Z,6.47
2017-11-17T12:36:07.129Z,6.46
2017-11-17T12:38:33.835Z,6.57
2017-11-17T12:41:02.122Z,6.61
2017-11-17T12:43:29.524Z,6.72
2017-11-17T12:45:56.207Z,6.63
2017-11-17T12:48:22.946Z,6.71
2017-11-17T12:50:49.689Z,6.74
2017-11-17T12:53:16.479Z,6.85
2017-11-17T12:55:43.919Z,6.99
2017-11-17T12:58:11.349Z,7.05
2017-11-17T13:00:38.020Z,6.92
2017-11-17T13:03:05.485Z,6.88
2017-11-17T13:05:32.875Z,6.76
2017-11-17T13:08:01.458Z,6.68
2017-11-17T13:10:28.139Z,6.61
2017-11-17T13:12:54.825Z,6.79
2017-11-17T13:15:22.228Z,6.68
2017-11-17T13:17:48.940Z,6.76
2017-11-17T13:20:15.622Z,6.84
2017-11-17T13:22:42.313Z,6.84
2017-11-17T13:25:09.728Z,6.65
2017-11-17T13:27:36.512Z,6.92
2017-11-17T13:30:03.946Z,6.97
2017-11-17T13:32:30.656Z,7.02
2017-11-17T13:34:57.321Z,6.89
2017-11-17T13:37:23.989Z,6.93
2017-11-17T13:39:50.703Z,6.84
2017-11-17T13:42:17.387Z,7.02
2017-11-17T13:44:44.797Z,7.09
2017-11-17T13:47:11.522Z,6.94
2017-11-17T13:49:38.224Z,7.05
2017-11-17T13:52:04.884Z,7.04
2017-11-17T13:54:32.354Z,7.08
2017-11-17T13:56:59.750Z,6.96
2017-11-17T13:59:26.407Z,6.88
2017-11-17T14:01:53.178Z,6.92
2017-11-17T14:04:19.847Z,7.00
2017-11-17T14:06:46.555Z,6.78
2017-11-17T14:09:13.257Z,6.83
2017-11-17T14:11:39.943Z,6.91
2017-11-17T14:14:06.651Z,6.84
2017-11-17T14:16:33.297Z,6.89
2017-11-17T14:19:00.008Z,6.77
2017-11-17T14:21:26.658Z,6.81
2017-11-17T14:23:53.312Z,6.82
2017-11-17T14:26:20.047Z,6.84
2017-11-17T14:28:46.731Z,6.94
2017-11-17T14:31:13.413Z,6.82
2017-11-17T14:33:40.906Z,6.84
2017-11-17T14:36:07.632Z,6.66
2017-11-17T14:38:34.311Z,6.63
2017-11-17T14:41:01.045Z,6.60
2017-11-17T14:43:27.743Z,6.69
2017-11-17T14:45:55.220Z,6.66
2017-11-17T14:48:21.919Z,6.58
2017-11-17T14:50:48.697Z,6.70
2017-11-17T14:53:16.105Z,6.79
2017-11-17T14:55:42.773Z,6.53
2017-11-17T14:58:09.444Z,6.62
2017-11-17T15:00:36.978Z,6.83
2017-11-17T15:03:03.746Z,6.86
2017-11-17T15:05:31.212Z,6.85
2017-11-17T15:07:58.620Z,6.80
2017-11-17T15:10:25.395Z,6.83
2017-11-17T15:12:52.063Z,6.82
2017-11-17T15:15:19.585Z,6.61
2017-11-17T15:17:46.305Z,6.52
2017-11-17T15:20:13.027Z,6.60
2017-11-17T15:22:39.739Z,6.53
2017-11-17T15:25:07.205Z,6.51
2017-11-17T15:27:34.660Z,6.54
2017-11-17T15:30:02.179Z,6.54
2017-11-17T15:32:28.956Z,6.59
2017-11-17T15:34:55.730Z,6.59
2017-11-17T15:37:22.485Z,6.63
2017-11-17T15:39:49.240Z,6.65
2017-11-17T15:42:15.953Z,6.63
2017-11-17T15:44:43.410Z,6.61
2017-11-17T15:47:11.742Z,6.53
2017-11-17T15:49:38.513Z,6.50
2017-11-17T15:52:05.237Z,6.63
2017-11-17T15:54:31.956Z,6.76
2017-11-17T15:56:59.487Z,6.66
2017-11-17T15:59:26.971Z,6.68
2017-11-17T16:01:53.735Z,6.74
2017-11-17T16:04:20.431Z,6.68
2017-11-17T16:06:47.954Z,6.74
2017-11-17T16:09:14.728Z,6.76
2017-11-17T16:11:41.418Z,6.68
2017-11-17T16:14:08.212Z,6.66
2017-11-17T16:16:34.969Z,6.63
2017-11-17T16:19:02.436Z,6.66
2017-11-17T16:21:29.888Z,6.63
2017-11-17T16:23:56.605Z,6.52
2017-11-17T16:26:23.306Z,6.53
2017-11-17T16:28:50.035Z,6.53
2017-11-17T16:31:17.571Z,6.47
2017-11-17T16:33:44.254Z,6.58
2017-11-17T16:36:10.951Z,6.53
2017-11-17T16:38:37.709Z,6.62
2017-11-17T16:41:04.487Z,6.53
2017-11-17T16:43:31.254Z,6.49
2017-11-17T16:45:58.058Z,6.53
2017-11-17T16:48:25.506Z,6.49
2017-11-17T16:50:52.272Z,6.33
2017-11-17T16:53:19.807Z,6.43
2017-11-17T16:55:47.413Z,6.44
2017-11-17T16:58:14.135Z,6.62
2017-11-17T17:00:41.586Z,6.68
2017-11-17T17:03:08.258Z,6.56
2017-11-17T17:05:35.012Z,6.57
2017-11-17T17:08:01.794Z,6.48
2017-11-17T17:10:28.547Z,6.37
2017-11-17T17:12:55.322Z,6.50
2017-11-17T17:15:22.935Z,6.51
2017-11-17T17:17:49.643Z,6.56
2017-11-17T17:20:16.343Z,6.52
2017-11-17T17:22:43.142Z,6.46
2017-11-17T17:25:09.881Z,6.40
2017-11-17T17:27:36.550Z,6.37
2017-11-17T17:30:03.327Z,6.47
2017-11-17T17:32:29.992Z,6.47
2017-11-17T17:34:57.435Z,6.72
2017-11-17T17:37:24.152Z,6.70
2017-11-17T17:39:50.842Z,6.65
2017-11-17T17:42:17.554Z,6.59
2017-11-17T17:44:44.308Z,6.63
2017-11-17T17:47:11.023Z,6.59
2017-11-17T17:49:37.807Z,6.68
2017-11-17T17:52:05.332Z,6.80
2017-11-17T17:54:32.070Z,6.84
2017-11-17T17:56:58.815Z,6.75
2017-11-17T17:59:25.524Z,6.80
2017-11-17T18:01:53.052Z,6.80
2017-11-17T18:04:19.850Z,6.90
2017-11-17T18:06:46.571Z,6.88
2017-11-17T18:09:14.131Z,7.02
2017-11-17T18:11:41.558Z,6.80
2017-11-17T18:14:09.085Z,6.84
2017-11-17T18:16:35.768Z,6.91
2017-11-17T18:19:02.447Z,6.98
2017-11-17T18:21:29.965Z,7.03
2017-11-17T18:23:56.697Z,7.10
2017-11-17T18:26:23.456Z,7.05
2017-11-17T18:28:50.165Z,7.06
2017-11-17T18:31:16.854Z,6.90
2017-11-17T18:33:44.369Z,7.06
2017-11-17T18:36:11.849Z,6.90
2017-11-17T18:38:38.571Z,6.84
2017-11-17T18:41:05.293Z,6.94
2017-11-17T18:43:33.549Z,6.83
2017-11-17T18:46:00.245Z,6.81
2017-11-17T18:48:26.957Z,6.62
2017-11-17T18:50:54.395Z,6.49
2017-11-17T18:53:21.113Z,6.64
2017-11-17T18:55:47.785Z,6.56
2017-11-17T18:58:14.484Z,6.54
2017-11-17T19:00:41.215Z,6.53
2017-11-17T19:03:07.903Z,6.44
2017-11-17T19:05:34.660Z,6.43
2017-11-17T19:08:01.374Z,6.30
2017-11-17T19:10:28.139Z,6.10
2017-11-17T19:12:54.828Z,6.15
2017-11-17T19:15:21.523Z,6.05
2017-11-17T19:17:48.192Z,6.10
2017-11-17T19:20:15.604Z,6.12
2017-11-17T19:22:42.325Z,5.96
2017-11-17T19:25:09.052Z,5.92
2017-11-17T19:27:35.753Z,5.96
2017-11-17T19:30:02.520Z,5.96
2017-11-17T19:32:29.169Z,6.03
2017-11-17T19:34:57.928Z,6.12
2017-11-17T19:37:24.667Z,6.11
2017-11-17T19:39:51.377Z,6.07
2017-11-17T19:42:18.060Z,6.05
2017-11-17T19:44:44.766Z,6.02
2017-11-17T19:47:11.474Z,5.99
2017-11-17T19:49:38.168Z,6.03
2017-11-17T19:52:04.884Z,6.05
2017-11-17T19:54:31.586Z,6.14
2017-11-17T19:56:58.274Z,6.18
2017-11-17T19:59:24.941Z,6.23
2017-11-17T20:01:51.676Z,6.27
2017-11-17T20:04:18.437Z,6.09
2017-11-17T20:06:45.885Z,6.09
2017-11-17T20:09:12.596Z,5.98
2017-11-17T20:11:39.998Z,5.99
2017-11-17T20:14:06.682Z,5.95
2017-11-17T20:16:33.398Z,6.09
2017-11-17T20:19:00.124Z,6.08
2017-11-17T20:21:26.826Z,5.93
2017-11-17T20:23:54.293Z,5.78
2017-11-17T20:26:22.420Z,5.83
2017-11-17T20:28:49.068Z,5.88
2017-11-17T20:31:15.828Z,5.89
2017-11-17T20:33:42.530Z,6.00
2017-11-17T20:36:09.220Z,6.02
2017-11-17T20:38:36.014Z,6.02
2017-11-17T20:41:02.683Z,5.79
2017-11-17T20:43:29.401Z,5.79
2017-11-17T20:45:56.109Z,5.87
2017-11-17T20:48:23.569Z,5.85
2017-11-17T20:50:50.292Z,5.80
2017-11-17T20:53:17.010Z,5.67
2017-11-17T20:55:44.628Z,5.66
2017-11-17T20:58:12.074Z,5.78
2017-11-17T21:00:39.774Z,5.72
2017-11-17T21:03:06.443Z,5.64
2017-11-17T21:05:33.175Z,5.74
2017-11-17T21:08:00.807Z,5.78
2017-11-17T21:10:28.305Z,5.73
2017-11-17T21:12:54.997Z,5.85
2017-11-17T21:15:21.702Z,5.93
2017-11-17T21:17:48.393Z,5.72
2017-11-17T21:20:15.071Z,5.73
2017-11-17T21:22:41.777Z,5.84
2017-11-17T21:25:10.163Z,5.83
2017-11-17T21:27:37.635Z,5.83
2017-11-17T21:30:05.056Z,5.75
2017-11-17T21:32:31.760Z,5.73
2017-11-17T21:34:58.463Z,5.88
2017-11-17T21:37:25.913Z,5.96
2017-11-17T21:39:52.705Z,6.00
2017-11-17T21:42:19.758Z,5.93
2017-11-17T21:44:46.568Z,5.96
2017-11-17T21:47:14.056Z,5.94
2017-11-17T21:49:40.793Z,5.83
2017-11-17T21:52:07.546Z,5.79
2017-11-17T21:54:34.268Z,5.68
2017-11-17T21:57:01.785Z,5.75
2017-11-17T21:59:28.532Z,5.82
2017-11-17T22:01:55.271Z,5.85
2017-11-17T22:04:21.973Z,5.65
2017-11-17T22:06:48.644Z,5.82
2017-11-17T22:09:15.383Z,5.98
2017-11-17T22:11:42.052Z,5.95
2017-11-17T22:14:08.763Z,5.95
2017-11-17T22:16:35.578Z,6.00
2017-11-17T22:19:03.067Z,6.06
2017-11-17T22:21:29.916Z,5.94
2017-11-17T22:23:56.729Z,5.93
2017-11-17T22:26:24.285Z,5.94
2017-11-17T22:28:51.684Z,5.92
2017-11-17T22:31:18.381Z,5.87
2017-11-17T22:33:45.071Z,6.02
2017-11-17T22:36:12.931Z,5.91
2017-11-17T22:38:39.630Z,6.07
2017-11-17T22:41:06.322Z,5.89
2017-11-17T22:43:33.006Z,5.85
2017-11-17T22:45:59.662Z,5.75
2017-11-17T22:48:26.476Z,5.66
2017-11-17T22:50:53.290Z,5.74
2017-11-17T22:53:20.749Z,5.74
2017-11-17T22:55:48.217Z,5.90
2017-11-17T22:58:14.921Z,5.79
2017-11-17T23:00:41.846Z,5.89
2017-11-17T23:03:08.563Z,5.98
2017-11-17T23:05:35.341Z,6.01
2017-11-17T23:08:02.049Z,5.91
2017-11-17T23:10:28.769Z,6.03
2017-11-17T23:12:55.483Z,6.05
2017-11-17T23:15:22.186Z,6.15
2017-11-17T23:17:48.920Z,6.27
2017-11-17T23:20:15.605Z,6.37
2017-11-17T23:22:42.282Z,6.35
2017-11-17T23:25:09.716Z,6.39
2017-11-17T23:27:36.402Z,6.18
2017-11-17T23:30:03.125Z,6.20
2017-11-17T23:32:29.891Z,6.35
2017-11-17T23:34:57.372Z,6.31
2017-11-17T23:37:24.099Z,6.32
2017-11-17T23:39:51.546Z,6.30
2017-11-17T23:42:18.996Z,6.31
2017-11-17T23:44:45.691Z,6.29
2017-11-17T23:47:12.405Z,6.37
2017-11-17T23:49:39.854Z,6.39
2017-11-17T23:52:07.377Z,6.45
2017-11-17T23:54:34.172Z,6.49
2017-11-17T23:57:01.906Z,6.52
2017-11-17T23:59:29.248Z,6.59
